Dubai International Airport

OMDB | DXB

Dubai , Dubai , United Arab Emirates

Sunday, June 7th, 2020 | 10:08

Weather

OMDB 070600Z 19006KT 160V230 8000 NSC 36/24 Q1000 NOSIG

Charts

1 Available

Gates

221 Available

Runways

2 Available

Active ATC

Events -Coming Soon-

1 Events Coming Up Soon

Next event:
OMDB Flyout